sensor_id;sensor_type;location;lat;lon;timestamp;P1;durP1;ratioP1;P2;durP2;ratioP2
18776;SDS011;9517;51.174;4.160;2023-05-17T00:02:21;22.60;;;6.57;;
18776;SDS011;9517;51.174;4.160;2023-05-17T00:04:54;23.83;;;6.37;;
18776;SDS011;9517;51.174;4.160;2023-05-17T00:07:22;26.17;;;6.40;;
18776;SDS011;9517;51.174;4.160;2023-05-17T00:09:56;26.33;;;6.30;;
18776;SDS011;9517;51.174;4.160;2023-05-17T00:12:26;22.10;;;6.13;;
18776;SDS011;9517;51.174;4.160;2023-05-17T00:14:55;18.93;;;6.60;;
18776;SDS011;9517;51.174;4.160;2023-05-17T00:17:22;29.23;;;7.70;;
18776;SDS011;9517;51.174;4.160;2023-05-17T00:19:50;23.30;;;7.47;;
18776;SDS011;9517;51.174;4.160;2023-05-17T00:22:22;30.13;;;7.53;;
18776;SDS011;9517;51.174;4.160;2023-05-17T00:24:51;22.27;;;7.30;;
18776;SDS011;9517;51.174;4.160;2023-05-17T00:27:27;23.20;;;6.80;;
18776;SDS011;9517;51.174;4.160;2023-05-17T00:29:59;25.60;;;8.03;;
18776;SDS011;9517;51.174;4.160;2023-05-17T00:32:33;27.83;;;7.03;;
18776;SDS011;9517;51.174;4.160;2023-05-17T00:35:05;25.67;;;7.30;;
18776;SDS011;9517;51.174;4.160;2023-05-17T00:37:33;28.30;;;7.63;;
18776;SDS011;9517;51.174;4.160;2023-05-17T00:40:00;33.07;;;8.30;;
18776;SDS011;9517;51.174;4.160;2023-05-17T00:42:29;25.90;;;7.93;;
18776;SDS011;9517;51.174;4.160;2023-05-17T00:44:57;24.87;;;7.53;;
18776;SDS011;9517;51.174;4.160;2023-05-17T00:47:24;25.77;;;7.70;;
18776;SDS011;9517;51.174;4.160;2023-05-17T00:49:51;22.83;;;7.97;;
18776;SDS011;9517;51.174;4.160;2023-05-17T00:52:22;30.77;;;8.90;;
18776;SDS011;9517;51.174;4.160;2023-05-17T00:54:50;26.70;;;8.30;;
18776;SDS011;9517;51.174;4.160;2023-05-17T00:57:18;28.90;;;8.27;;
18776;SDS011;9517;51.174;4.160;2023-05-17T00:59:45;25.27;;;8.43;;
18776;SDS011;9517;51.174;4.160;2023-05-17T01:02:13;27.97;;;9.47;;
18776;SDS011;9517;51.174;4.160;2023-05-17T01:04:45;25.57;;;8.50;;
18776;SDS011;9517;51.174;4.160;2023-05-17T01:07:15;27.97;;;8.50;;
18776;SDS011;9517;51.174;4.160;2023-05-17T01:09:44;25.53;;;8.07;;
18776;SDS011;9517;51.174;4.160;2023-05-17T01:12:14;23.83;;;8.50;;
18776;SDS011;9517;51.174;4.160;2023-05-17T01:14:52;26.83;;;8.40;;
18776;SDS011;9517;51.174;4.160;2023-05-17T01:17:28;25.90;;;8.27;;
18776;SDS011;9517;51.174;4.160;2023-05-17T01:20:04;25.37;;;8.00;;
18776;SDS011;9517;51.174;4.160;2023-05-17T01:22:43;27.63;;;8.33;;
18776;SDS011;9517;51.174;4.160;2023-05-17T01:25:26;23.43;;;8.10;;
18776;SDS011;9517;51.174;4.160;2023-05-17T01:28:03;30.10;;;8.57;;
18776;SDS011;9517;51.174;4.160;2023-05-17T01:30:31;28.80;;;8.07;;
18776;SDS011;9517;51.174;4.160;2023-05-17T01:33:01;29.00;;;7.80;;
18776;SDS011;9517;51.174;4.160;2023-05-17T01:35:29;30.93;;;8.30;;
18776;SDS011;9517;51.174;4.160;2023-05-17T01:37:59;25.30;;;8.30;;
18776;SDS011;9517;51.174;4.160;2023-05-17T01:40:26;25.50;;;7.93;;
18776;SDS011;9517;51.174;4.160;2023-05-17T01:42:55;25.07;;;8.57;;
18776;SDS011;9517;51.174;4.160;2023-05-17T01:45:34;33.60;;;8.90;;
18776;SDS011;9517;51.174;4.160;2023-05-17T01:48:11;28.53;;;8.73;;
18776;SDS011;9517;51.174;4.160;2023-05-17T01:50:46;25.77;;;8.53;;
18776;SDS011;9517;51.174;4.160;2023-05-17T01:53:16;31.00;;;9.33;;
18776;SDS011;9517;51.174;4.160;2023-05-17T01:55:49;29.50;;;9.53;;
18776;SDS011;9517;51.174;4.160;2023-05-17T01:58:18;33.70;;;10.30;;
18776;SDS011;9517;51.174;4.160;2023-05-17T02:00:53;32.80;;;10.00;;
18776;SDS011;9517;51.174;4.160;2023-05-17T02:03:26;30.20;;;9.57;;
18776;SDS011;9517;51.174;4.160;2023-05-17T02:05:54;30.23;;;9.70;;
18776;SDS011;9517;51.174;4.160;2023-05-17T02:08:21;23.03;;;8.00;;
18776;SDS011;9517;51.174;4.160;2023-05-17T02:10:51;32.20;;;9.87;;
18776;SDS011;9517;51.174;4.160;2023-05-17T02:13:18;32.73;;;10.60;;
18776;SDS011;9517;51.174;4.160;2023-05-17T02:15:47;30.80;;;9.87;;
18776;SDS011;9517;51.174;4.160;2023-05-17T02:18:15;30.00;;;9.70;;
18776;SDS011;9517;51.174;4.160;2023-05-17T02:20:45;27.03;;;9.80;;
18776;SDS011;9517;51.174;4.160;2023-05-17T02:23:13;28.13;;;10.10;;
18776;SDS011;9517;51.174;4.160;2023-05-17T02:25:40;32.20;;;10.00;;
18776;SDS011;9517;51.174;4.160;2023-05-17T02:28:07;26.47;;;10.23;;
18776;SDS011;9517;51.174;4.160;2023-05-17T02:30:34;37.23;;;10.47;;
18776;SDS011;9517;51.174;4.160;2023-05-17T02:33:04;32.37;;;10.43;;
18776;SDS011;9517;51.174;4.160;2023-05-17T02:35:36;30.57;;;10.57;;
18776;SDS011;9517;51.174;4.160;2023-05-17T02:38:03;29.50;;;10.60;;
18776;SDS011;9517;51.174;4.160;2023-05-17T02:40:33;27.20;;;9.33;;
18776;SDS011;9517;51.174;4.160;2023-05-17T02:43:02;27.03;;;10.40;;
18776;SDS011;9517;51.174;4.160;2023-05-17T02:45:29;34.93;;;11.73;;
18776;SDS011;9517;51.174;4.160;2023-05-17T02:47:57;33.67;;;10.67;;
18776;SDS011;9517;51.174;4.160;2023-05-17T02:50:24;34.10;;;11.03;;
18776;SDS011;9517;51.174;4.160;2023-05-17T02:52:52;30.93;;;10.93;;
18776;SDS011;9517;51.174;4.160;2023-05-17T02:55:20;26.27;;;10.87;;
18776;SDS011;9517;51.174;4.160;2023-05-17T02:57:47;27.03;;;11.33;;
18776;SDS011;9517;51.174;4.160;2023-05-17T03:00:15;35.97;;;11.80;;
18776;SDS011;9517;51.174;4.160;2023-05-17T03:02:43;34.43;;;11.63;;
18776;SDS011;9517;51.174;4.160;2023-05-17T03:05:10;40.60;;;12.40;;
18776;SDS011;9517;51.174;4.160;2023-05-17T03:07:37;41.57;;;12.37;;
18776;SDS011;9517;51.174;4.160;2023-05-17T03:10:06;39.83;;;12.67;;
18776;SDS011;9517;51.174;4.160;2023-05-17T03:12:34;45.30;;;12.63;;
18776;SDS011;9517;51.174;4.160;2023-05-17T03:15:01;33.63;;;12.37;;
18776;SDS011;9517;51.174;4.160;2023-05-17T03:17:29;38.33;;;13.83;;
18776;SDS011;9517;51.174;4.160;2023-05-17T03:19:56;33.33;;;12.43;;
18776;SDS011;9517;51.174;4.160;2023-05-17T03:22:23;31.83;;;12.20;;
18776;SDS011;9517;51.174;4.160;2023-05-17T03:24:51;37.93;;;13.10;;
18776;SDS011;9517;51.174;4.160;2023-05-17T03:27:19;37.27;;;13.00;;
18776;SDS011;9517;51.174;4.160;2023-05-17T03:29:46;33.63;;;14.20;;
18776;SDS011;9517;51.174;4.160;2023-05-17T03:32:13;40.07;;;13.77;;
18776;SDS011;9517;51.174;4.160;2023-05-17T03:34:41;39.07;;;13.43;;
18776;SDS011;9517;51.174;4.160;2023-05-17T03:37:08;43.93;;;15.50;;
18776;SDS011;9517;51.174;4.160;2023-05-17T03:39:36;39.73;;;15.03;;
18776;SDS011;9517;51.174;4.160;2023-05-17T03:42:04;36.63;;;14.13;;
18776;SDS011;9517;51.174;4.160;2023-05-17T03:44:33;37.97;;;14.17;;
18776;SDS011;9517;51.174;4.160;2023-05-17T03:47:01;34.40;;;14.50;;
18776;SDS011;9517;51.174;4.160;2023-05-17T03:49:28;32.50;;;13.70;;
18776;SDS011;9517;51.174;4.160;2023-05-17T03:51:55;37.90;;;14.03;;
18776;SDS011;9517;51.174;4.160;2023-05-17T03:54:24;31.60;;;12.97;;
18776;SDS011;9517;51.174;4.160;2023-05-17T03:56:52;36.47;;;13.77;;
18776;SDS011;9517;51.174;4.160;2023-05-17T03:59:21;36.43;;;13.30;;
18776;SDS011;9517;51.174;4.160;2023-05-17T04:01:52;38.03;;;13.83;;
18776;SDS011;9517;51.174;4.160;2023-05-17T04:04:19;37.63;;;13.33;;
18776;SDS011;9517;51.174;4.160;2023-05-17T04:06:50;33.50;;;12.47;;
18776;SDS011;9517;51.174;4.160;2023-05-17T04:09:20;32.00;;;12.00;;
18776;SDS011;9517;51.174;4.160;2023-05-17T04:11:50;32.10;;;11.73;;
18776;SDS011;9517;51.174;4.160;2023-05-17T04:14:18;30.63;;;11.17;;
18776;SDS011;9517;51.174;4.160;2023-05-17T04:16:46;35.37;;;11.93;;
18776;SDS011;9517;51.174;4.160;2023-05-17T04:19:15;37.10;;;12.43;;
18776;SDS011;9517;51.174;4.160;2023-05-17T04:21:43;29.40;;;11.33;;
18776;SDS011;9517;51.174;4.160;2023-05-17T04:24:12;33.93;;;12.13;;
18776;SDS011;9517;51.174;4.160;2023-05-17T04:26:43;30.07;;;11.30;;
18776;SDS011;9517;51.174;4.160;2023-05-17T04:29:11;34.37;;;11.00;;
18776;SDS011;9517;51.174;4.160;2023-05-17T04:31:38;31.90;;;11.03;;
18776;SDS011;9517;51.174;4.160;2023-05-17T04:34:05;27.47;;;10.97;;
18776;SDS011;9517;51.174;4.160;2023-05-17T04:36:34;35.50;;;12.43;;
18776;SDS011;9517;51.174;4.160;2023-05-17T04:39:01;32.27;;;11.63;;
18776;SDS011;9517;51.174;4.160;2023-05-17T04:41:28;26.33;;;11.33;;
18776;SDS011;9517;51.174;4.160;2023-05-17T04:43:57;28.20;;;9.97;;
18776;SDS011;9517;51.174;4.160;2023-05-17T04:46:24;31.70;;;10.77;;
18776;SDS011;9517;51.174;4.160;2023-05-17T04:48:51;37.77;;;11.63;;
18776;SDS011;9517;51.174;4.160;2023-05-17T04:51:20;26.40;;;11.13;;
18776;SDS011;9517;51.174;4.160;2023-05-17T04:53:48;29.87;;;10.00;;
18776;SDS011;9517;51.174;4.160;2023-05-17T04:56:15;30.27;;;10.90;;
18776;SDS011;9517;51.174;4.160;2023-05-17T04:58:43;30.27;;;10.57;;
18776;SDS011;9517;51.174;4.160;2023-05-17T05:01:10;35.43;;;10.67;;
18776;SDS011;9517;51.174;4.160;2023-05-17T05:03:37;28.13;;;10.23;;
18776;SDS011;9517;51.174;4.160;2023-05-17T05:06:04;29.73;;;9.77;;
18776;SDS011;9517;51.174;4.160;2023-05-17T05:08:31;33.80;;;10.53;;
18776;SDS011;9517;51.174;4.160;2023-05-17T05:11:00;30.03;;;10.27;;
18776;SDS011;9517;51.174;4.160;2023-05-17T05:13:27;24.53;;;9.47;;
18776;SDS011;9517;51.174;4.160;2023-05-17T05:15:54;32.20;;;9.70;;
18776;SDS011;9517;51.174;4.160;2023-05-17T05:18:21;27.20;;;8.70;;
18776;SDS011;9517;51.174;4.160;2023-05-17T05:20:48;28.40;;;8.87;;
18776;SDS011;9517;51.174;4.160;2023-05-17T05:23:16;26.27;;;8.87;;
18776;SDS011;9517;51.174;4.160;2023-05-17T05:25:46;23.17;;;8.67;;
18776;SDS011;9517;51.174;4.160;2023-05-17T05:28:14;24.90;;;8.50;;
18776;SDS011;9517;51.174;4.160;2023-05-17T05:30:41;26.27;;;8.13;;
18776;SDS011;9517;51.174;4.160;2023-05-17T05:33:08;22.63;;;8.53;;
18776;SDS011;9517;51.174;4.160;2023-05-17T05:35:35;25.87;;;9.20;;
18776;SDS011;9517;51.174;4.160;2023-05-17T05:38:03;27.97;;;8.43;;
18776;SDS011;9517;51.174;4.160;2023-05-17T05:40:30;22.77;;;8.57;;
18776;SDS011;9517;51.174;4.160;2023-05-17T05:42:57;25.40;;;8.27;;
18776;SDS011;9517;51.174;4.160;2023-05-17T05:45:26;30.10;;;8.70;;
18776;SDS011;9517;51.174;4.160;2023-05-17T05:47:53;28.00;;;9.13;;
18776;SDS011;9517;51.174;4.160;2023-05-17T05:50:20;24.57;;;9.13;;
18776;SDS011;9517;51.174;4.160;2023-05-17T05:52:47;31.80;;;9.33;;
18776;SDS011;9517;51.174;4.160;2023-05-17T05:55:14;27.80;;;8.80;;
18776;SDS011;9517;51.174;4.160;2023-05-17T05:57:41;22.70;;;8.30;;
18776;SDS011;9517;51.174;4.160;2023-05-17T06:00:09;24.73;;;8.80;;
18776;SDS011;9517;51.174;4.160;2023-05-17T06:02:38;20.83;;;8.17;;
18776;SDS011;9517;51.174;4.160;2023-05-17T06:05:05;32.13;;;8.27;;
18776;SDS011;9517;51.174;4.160;2023-05-17T06:07:33;27.77;;;8.30;;
18776;SDS011;9517;51.174;4.160;2023-05-17T06:10:00;27.83;;;7.83;;
18776;SDS011;9517;51.174;4.160;2023-05-17T06:12:27;24.43;;;8.07;;
18776;SDS011;9517;51.174;4.160;2023-05-17T06:14:54;24.23;;;7.13;;
18776;SDS011;9517;51.174;4.160;2023-05-17T06:17:21;28.57;;;7.17;;
18776;SDS011;9517;51.174;4.160;2023-05-17T06:19:50;26.20;;;7.43;;
18776;SDS011;9517;51.174;4.160;2023-05-17T06:22:17;23.47;;;7.17;;
18776;SDS011;9517;51.174;4.160;2023-05-17T06:24:44;30.27;;;7.27;;
18776;SDS011;9517;51.174;4.160;2023-05-17T06:27:12;28.47;;;7.47;;
18776;SDS011;9517;51.174;4.160;2023-05-17T06:29:39;24.97;;;7.27;;
18776;SDS011;9517;51.174;4.160;2023-05-17T06:32:06;27.10;;;7.10;;
18776;SDS011;9517;51.174;4.160;2023-05-17T06:34:33;27.53;;;6.77;;
18776;SDS011;9517;51.174;4.160;2023-05-17T06:37:01;22.90;;;6.73;;
18776;SDS011;9517;51.174;4.160;2023-05-17T06:39:29;26.13;;;6.87;;
18776;SDS011;9517;51.174;4.160;2023-05-17T06:41:56;25.53;;;6.57;;
18776;SDS011;9517;51.174;4.160;2023-05-17T06:44:23;21.57;;;6.10;;
18776;SDS011;9517;51.174;4.160;2023-05-17T06:46:50;18.23;;;5.60;;
18776;SDS011;9517;51.174;4.160;2023-05-17T06:49:17;20.80;;;5.77;;
18776;SDS011;9517;51.174;4.160;2023-05-17T06:51:44;22.37;;;5.90;;
18776;SDS011;9517;51.174;4.160;2023-05-17T06:54:14;21.53;;;6.07;;
18776;SDS011;9517;51.174;4.160;2023-05-17T06:56:43;19.77;;;5.83;;
18776;SDS011;9517;51.174;4.160;2023-05-17T06:59:10;23.23;;;6.07;;
18776;SDS011;9517;51.174;4.160;2023-05-17T07:01:37;18.63;;;5.47;;
18776;SDS011;9517;51.174;4.160;2023-05-17T07:04:04;21.03;;;6.27;;
18776;SDS011;9517;51.174;4.160;2023-05-17T07:06:31;19.77;;;6.47;;
18776;SDS011;9517;51.174;4.160;2023-05-17T07:08:58;20.47;;;5.30;;
18776;SDS011;9517;51.174;4.160;2023-05-17T07:11:27;22.80;;;6.53;;
18776;SDS011;9517;51.174;4.160;2023-05-17T07:13:54;20.27;;;5.47;;
18776;SDS011;9517;51.174;4.160;2023-05-17T07:16:21;16.47;;;5.77;;
18776;SDS011;9517;51.174;4.160;2023-05-17T07:18:48;14.77;;;5.50;;
18776;SDS011;9517;51.174;4.160;2023-05-17T07:21:16;19.33;;;5.63;;
18776;SDS011;9517;51.174;4.160;2023-05-17T07:23:43;17.93;;;5.20;;
18776;SDS011;9517;51.174;4.160;2023-05-17T07:26:10;18.27;;;5.60;;
18776;SDS011;9517;51.174;4.160;2023-05-17T07:28:38;18.40;;;5.10;;
18776;SDS011;9517;51.174;4.160;2023-05-17T07:31:05;13.30;;;4.37;;
18776;SDS011;9517;51.174;4.160;2023-05-17T07:33:32;15.77;;;4.50;;
18776;SDS011;9517;51.174;4.160;2023-05-17T07:35:59;18.43;;;4.70;;
18776;SDS011;9517;51.174;4.160;2023-05-17T07:38:27;18.40;;;4.50;;
18776;SDS011;9517;51.174;4.160;2023-05-17T07:40:54;17.40;;;4.33;;
18776;SDS011;9517;51.174;4.160;2023-05-17T07:43:21;13.37;;;3.20;;
18776;SDS011;9517;51.174;4.160;2023-05-17T07:45:49;15.50;;;3.83;;
18776;SDS011;9517;51.174;4.160;2023-05-17T07:48:17;16.33;;;3.43;;
18776;SDS011;9517;51.174;4.160;2023-05-17T07:50:44;13.27;;;3.50;;
18776;SDS011;9517;51.174;4.160;2023-05-17T07:53:11;18.73;;;3.77;;
18776;SDS011;9517;51.174;4.160;2023-05-17T07:55:38;13.17;;;3.13;;
18776;SDS011;9517;51.174;4.160;2023-05-17T07:58:05;15.27;;;3.40;;
18776;SDS011;9517;51.174;4.160;2023-05-17T08:00:35;16.00;;;3.97;;
18776;SDS011;9517;51.174;4.160;2023-05-17T08:03:03;12.83;;;3.33;;
18776;SDS011;9517;51.174;4.160;2023-05-17T08:05:31;19.20;;;3.60;;
18776;SDS011;9517;51.174;4.160;2023-05-17T08:07:58;17.87;;;3.87;;
18776;SDS011;9517;51.174;4.160;2023-05-17T08:10:25;13.73;;;3.50;;
18776;SDS011;9517;51.174;4.160;2023-05-17T08:12:52;14.00;;;3.40;;
18776;SDS011;9517;51.174;4.160;2023-05-17T08:15:20;13.77;;;3.47;;
18776;SDS011;9517;51.174;4.160;2023-05-17T08:17:47;17.50;;;3.60;;
18776;SDS011;9517;51.174;4.160;2023-05-17T08:20:16;14.90;;;3.37;;
18776;SDS011;9517;51.174;4.160;2023-05-17T08:22:43;14.73;;;2.97;;
18776;SDS011;9517;51.174;4.160;2023-05-17T08:25:10;13.27;;;3.20;;
18776;SDS011;9517;51.174;4.160;2023-05-17T08:27:37;13.00;;;2.90;;
18776;SDS011;9517;51.174;4.160;2023-05-17T08:30:05;10.90;;;2.63;;
18776;SDS011;9517;51.174;4.160;2023-05-17T08:32:32;12.33;;;2.90;;
18776;SDS011;9517;51.174;4.160;2023-05-17T08:35:00;15.00;;;3.20;;
18776;SDS011;9517;51.174;4.160;2023-05-17T08:37:29;17.20;;;3.07;;
18776;SDS011;9517;51.174;4.160;2023-05-17T08:39:56;12.73;;;2.47;;
18776;SDS011;9517;51.174;4.160;2023-05-17T08:42:24;15.63;;;2.93;;
18776;SDS011;9517;51.174;4.160;2023-05-17T08:44:51;13.30;;;2.70;;
18776;SDS011;9517;51.174;4.160;2023-05-17T08:47:21;11.37;;;2.53;;
18776;SDS011;9517;51.174;4.160;2023-05-17T08:49:54;13.60;;;3.23;;
18776;SDS011;9517;51.174;4.160;2023-05-17T08:52:26;12.13;;;2.53;;
18776;SDS011;9517;51.174;4.160;2023-05-17T08:54:57;16.90;;;3.50;;
18776;SDS011;9517;51.174;4.160;2023-05-17T08:57:25;9.53;;;2.73;;
18776;SDS011;9517;51.174;4.160;2023-05-17T08:59:54;18.27;;;3.50;;
18776;SDS011;9517;51.174;4.160;2023-05-17T09:02:23;15.20;;;3.20;;
18776;SDS011;9517;51.174;4.160;2023-05-17T09:04:52;13.20;;;3.00;;
18776;SDS011;9517;51.174;4.160;2023-05-17T09:07:21;17.40;;;2.97;;
18776;SDS011;9517;51.174;4.160;2023-05-17T09:09:50;21.07;;;3.17;;
18776;SDS011;9517;51.174;4.160;2023-05-17T09:12:18;16.70;;;2.83;;
18776;SDS011;9517;51.174;4.160;2023-05-17T09:14:45;12.33;;;2.50;;
18776;SDS011;9517;51.174;4.160;2023-05-17T09:17:13;15.90;;;2.53;;
18776;SDS011;9517;51.174;4.160;2023-05-17T09:19:42;15.20;;;2.50;;
18776;SDS011;9517;51.174;4.160;2023-05-17T09:22:11;14.40;;;2.60;;
18776;SDS011;9517;51.174;4.160;2023-05-17T09:24:39;13.67;;;2.60;;
18776;SDS011;9517;51.174;4.160;2023-05-17T09:27:10;12.33;;;2.23;;
18776;SDS011;9517;51.174;4.160;2023-05-17T09:29:40;13.00;;;2.67;;
18776;SDS011;9517;51.174;4.160;2023-05-17T09:32:12;13.57;;;2.47;;
18776;SDS011;9517;51.174;4.160;2023-05-17T09:34:40;14.10;;;2.37;;
18776;SDS011;9517;51.174;4.160;2023-05-17T09:37:13;18.60;;;3.20;;
18776;SDS011;9517;51.174;4.160;2023-05-17T09:39:41;11.97;;;2.33;;
18776;SDS011;9517;51.174;4.160;2023-05-17T09:42:11;16.60;;;2.50;;
18776;SDS011;9517;51.174;4.160;2023-05-17T09:44:46;14.40;;;2.50;;
18776;SDS011;9517;51.174;4.160;2023-05-17T09:47:23;17.70;;;2.83;;
18776;SDS011;9517;51.174;4.160;2023-05-17T09:49:50;17.10;;;2.53;;
18776;SDS011;9517;51.174;4.160;2023-05-17T09:52:18;13.90;;;2.70;;
18776;SDS011;9517;51.174;4.160;2023-05-17T09:54:50;15.70;;;2.73;;
18776;SDS011;9517;51.174;4.160;2023-05-17T09:57:20;14.20;;;2.97;;
18776;SDS011;9517;51.174;4.160;2023-05-17T09:59:48;14.47;;;2.73;;
18776;SDS011;9517;51.174;4.160;2023-05-17T10:02:22;17.80;;;2.47;;
18776;SDS011;9517;51.174;4.160;2023-05-17T10:04:54;16.63;;;2.57;;
18776;SDS011;9517;51.174;4.160;2023-05-17T10:07:23;20.43;;;2.77;;
18776;SDS011;9517;51.174;4.160;2023-05-17T10:09:52;16.80;;;2.77;;
18776;SDS011;9517;51.174;4.160;2023-05-17T10:12:22;13.13;;;2.17;;
18776;SDS011;9517;51.174;4.160;2023-05-17T10:14:51;15.20;;;3.37;;
18776;SDS011;9517;51.174;4.160;2023-05-17T10:17:21;14.40;;;3.00;;
18776;SDS011;9517;51.174;4.160;2023-05-17T10:19:49;14.37;;;2.87;;
18776;SDS011;9517;51.174;4.160;2023-05-17T10:22:17;12.00;;;2.00;;
18776;SDS011;9517;51.174;4.160;2023-05-17T10:24:46;16.27;;;2.80;;
18776;SDS011;9517;51.174;4.160;2023-05-17T10:27:14;17.07;;;3.00;;
18776;SDS011;9517;51.174;4.160;2023-05-17T10:29:42;16.67;;;2.87;;
18776;SDS011;9517;51.174;4.160;2023-05-17T10:32:12;17.37;;;2.73;;
18776;SDS011;9517;51.174;4.160;2023-05-17T10:34:41;11.47;;;2.10;;
18776;SDS011;9517;51.174;4.160;2023-05-17T10:37:08;14.67;;;2.40;;
18776;SDS011;9517;51.174;4.160;2023-05-17T10:39:37;12.87;;;2.37;;
18776;SDS011;9517;51.174;4.160;2023-05-17T10:42:05;11.73;;;2.10;;
18776;SDS011;9517;51.174;4.160;2023-05-17T10:44:33;12.37;;;2.10;;
18776;SDS011;9517;51.174;4.160;2023-05-17T10:47:03;15.07;;;2.23;;
18776;SDS011;9517;51.174;4.160;2023-05-17T10:49:31;15.00;;;2.30;;
18776;SDS011;9517;51.174;4.160;2023-05-17T10:52:10;12.23;;;2.10;;
18776;SDS011;9517;51.174;4.160;2023-05-17T10:54:40;11.80;;;2.40;;
18776;SDS011;9517;51.174;4.160;2023-05-17T10:57:09;10.67;;;2.40;;
18776;SDS011;9517;51.174;4.160;2023-05-17T10:59:57;13.83;;;2.30;;
18776;SDS011;9517;51.174;4.160;2023-05-17T11:02:26;13.30;;;2.07;;
18776;SDS011;9517;51.174;4.160;2023-05-17T11:04:54;17.00;;;2.33;;
18776;SDS011;9517;51.174;4.160;2023-05-17T11:07:25;12.27;;;1.97;;
18776;SDS011;9517;51.174;4.160;2023-05-17T11:10:01;15.93;;;2.33;;
18776;SDS011;9517;51.174;4.160;2023-05-17T11:12:32;16.17;;;2.90;;
18776;SDS011;9517;51.174;4.160;2023-05-17T11:15:02;10.90;;;2.00;;
18776;SDS011;9517;51.174;4.160;2023-05-17T11:17:36;13.57;;;2.43;;
18776;SDS011;9517;51.174;4.160;2023-05-17T11:20:33;13.67;;;2.23;;
18776;SDS011;9517;51.174;4.160;2023-05-17T11:23:01;11.37;;;1.83;;
18776;SDS011;9517;51.174;4.160;2023-05-17T11:25:30;12.83;;;2.30;;
18776;SDS011;9517;51.174;4.160;2023-05-17T11:27:59;8.73;;;1.77;;
18776;SDS011;9517;51.174;4.160;2023-05-17T11:30:32;11.27;;;2.00;;
18776;SDS011;9517;51.174;4.160;2023-05-17T11:33:01;12.43;;;2.17;;
18776;SDS011;9517;51.174;4.160;2023-05-17T11:35:33;10.40;;;2.30;;
18776;SDS011;9517;51.174;4.160;2023-05-17T11:38:11;14.63;;;2.17;;
18776;SDS011;9517;51.174;4.160;2023-05-17T11:40:39;11.67;;;2.43;;
18776;SDS011;9517;51.174;4.160;2023-05-17T11:43:14;14.63;;;2.47;;
18776;SDS011;9517;51.174;4.160;2023-05-17T11:45:42;10.00;;;2.47;;
18776;SDS011;9517;51.174;4.160;2023-05-17T11:48:12;13.53;;;2.30;;
18776;SDS011;9517;51.174;4.160;2023-05-17T11:50:40;11.07;;;2.07;;
18776;SDS011;9517;51.174;4.160;2023-05-17T11:53:08;9.53;;;1.60;;
18776;SDS011;9517;51.174;4.160;2023-05-17T11:55:36;12.67;;;2.03;;
18776;SDS011;9517;51.174;4.160;2023-05-17T11:58:05;12.50;;;2.30;;
18776;SDS011;9517;51.174;4.160;2023-05-17T12:00:33;11.70;;;1.73;;
18776;SDS011;9517;51.174;4.160;2023-05-17T12:03:15;10.43;;;1.73;;
18776;SDS011;9517;51.174;4.160;2023-05-17T12:05:43;9.30;;;1.70;;
18776;SDS011;9517;51.174;4.160;2023-05-17T12:08:11;10.57;;;1.83;;
18776;SDS011;9517;51.174;4.160;2023-05-17T12:10:43;12.97;;;2.30;;
18776;SDS011;9517;51.174;4.160;2023-05-17T12:13:11;15.20;;;2.40;;
18776;SDS011;9517;51.174;4.160;2023-05-17T12:15:38;15.90;;;2.43;;
18776;SDS011;9517;51.174;4.160;2023-05-17T12:18:06;10.13;;;2.03;;
18776;SDS011;9517;51.174;4.160;2023-05-17T12:20:35;10.97;;;2.00;;
18776;SDS011;9517;51.174;4.160;2023-05-17T12:23:03;16.23;;;2.10;;
18776;SDS011;9517;51.174;4.160;2023-05-17T12:25:30;13.47;;;2.03;;
18776;SDS011;9517;51.174;4.160;2023-05-17T12:28:14;9.53;;;2.00;;
18776;SDS011;9517;51.174;4.160;2023-05-17T12:30:46;12.83;;;2.10;;
18776;SDS011;9517;51.174;4.160;2023-05-17T12:33:18;12.07;;;2.00;;
18776;SDS011;9517;51.174;4.160;2023-05-17T12:35:47;11.47;;;2.20;;
18776;SDS011;9517;51.174;4.160;2023-05-17T12:38:14;10.97;;;2.13;;
18776;SDS011;9517;51.174;4.160;2023-05-17T12:40:41;8.43;;;2.10;;
18776;SDS011;9517;51.174;4.160;2023-05-17T12:43:08;13.87;;;2.77;;
18776;SDS011;9517;51.174;4.160;2023-05-17T12:45:36;12.13;;;2.20;;
18776;SDS011;9517;51.174;4.160;2023-05-17T12:48:06;11.03;;;2.07;;
18776;SDS011;9517;51.174;4.160;2023-05-17T12:50:33;13.67;;;2.30;;
18776;SDS011;9517;51.174;4.160;2023-05-17T12:53:07;11.30;;;2.40;;
18776;SDS011;9517;51.174;4.160;2023-05-17T12:55:35;12.87;;;2.20;;
18776;SDS011;9517;51.174;4.160;2023-05-17T12:58:02;10.73;;;2.00;;
18776;SDS011;9517;51.174;4.160;2023-05-17T13:00:29;13.30;;;2.10;;
18776;SDS011;9517;51.174;4.160;2023-05-17T13:02:57;12.97;;;2.10;;
18776;SDS011;9517;51.174;4.160;2023-05-17T13:05:25;9.70;;;1.50;;
18776;SDS011;9517;51.174;4.160;2023-05-17T13:07:52;12.97;;;1.90;;
18776;SDS011;9517;51.174;4.160;2023-05-17T13:10:21;9.33;;;2.00;;
18776;SDS011;9517;51.174;4.160;2023-05-17T13:12:53;16.60;;;2.60;;
18776;SDS011;9517;51.174;4.160;2023-05-17T13:15:25;10.97;;;1.93;;
18776;SDS011;9517;51.174;4.160;2023-05-17T13:17:56;12.73;;;1.90;;
18776;SDS011;9517;51.174;4.160;2023-05-17T13:20:23;14.07;;;2.40;;
18776;SDS011;9517;51.174;4.160;2023-05-17T13:22:51;13.17;;;2.37;;
18776;SDS011;9517;51.174;4.160;2023-05-17T13:25:19;10.80;;;2.30;;
18776;SDS011;9517;51.174;4.160;2023-05-17T13:27:47;11.20;;;1.97;;
18776;SDS011;9517;51.174;4.160;2023-05-17T13:30:14;11.27;;;2.27;;
18776;SDS011;9517;51.174;4.160;2023-05-17T13:32:42;10.87;;;1.73;;
18776;SDS011;9517;51.174;4.160;2023-05-17T13:35:11;11.50;;;1.97;;
18776;SDS011;9517;51.174;4.160;2023-05-17T13:37:38;10.87;;;1.97;;
18776;SDS011;9517;51.174;4.160;2023-05-17T13:40:06;10.93;;;1.60;;
18776;SDS011;9517;51.174;4.160;2023-05-17T13:42:34;8.10;;;1.80;;
18776;SDS011;9517;51.174;4.160;2023-05-17T13:45:03;10.10;;;2.00;;
18776;SDS011;9517;51.174;4.160;2023-05-17T13:47:33;11.13;;;2.10;;
18776;SDS011;9517;51.174;4.160;2023-05-17T13:50:00;7.90;;;1.57;;
18776;SDS011;9517;51.174;4.160;2023-05-17T13:52:28;8.87;;;1.80;;
18776;SDS011;9517;51.174;4.160;2023-05-17T13:54:55;7.40;;;1.70;;
18776;SDS011;9517;51.174;4.160;2023-05-17T13:57:22;12.87;;;2.17;;
18776;SDS011;9517;51.174;4.160;2023-05-17T13:59:49;12.57;;;2.33;;
18776;SDS011;9517;51.174;4.160;2023-05-17T14:02:18;12.63;;;2.20;;
18776;SDS011;9517;51.174;4.160;2023-05-17T14:04:45;8.90;;;1.60;;
18776;SDS011;9517;51.174;4.160;2023-05-17T14:07:12;12.73;;;1.90;;
18776;SDS011;9517;51.174;4.160;2023-05-17T14:09:39;12.13;;;2.00;;
18776;SDS011;9517;51.174;4.160;2023-05-17T14:12:06;11.37;;;2.10;;
18776;SDS011;9517;51.174;4.160;2023-05-17T14:14:33;7.13;;;1.90;;
18776;SDS011;9517;51.174;4.160;2023-05-17T14:17:01;11.03;;;2.37;;
18776;SDS011;9517;51.174;4.160;2023-05-17T14:19:29;10.07;;;1.77;;
18776;SDS011;9517;51.174;4.160;2023-05-17T14:21:56;8.17;;;1.47;;
18776;SDS011;9517;51.174;4.160;2023-05-17T14:24:23;8.00;;;1.50;;
18776;SDS011;9517;51.174;4.160;2023-05-17T14:26:50;10.27;;;1.80;;
18776;SDS011;9517;51.174;4.160;2023-05-17T14:29:18;6.50;;;1.33;;
18776;SDS011;9517;51.174;4.160;2023-05-17T14:31:45;6.27;;;1.53;;
18776;SDS011;9517;51.174;4.160;2023-05-17T14:34:12;6.57;;;1.47;;
18776;SDS011;9517;51.174;4.160;2023-05-17T14:36:40;9.83;;;1.60;;
18776;SDS011;9517;51.174;4.160;2023-05-17T14:39:08;9.27;;;1.70;;
18776;SDS011;9517;51.174;4.160;2023-05-17T14:41:35;11.07;;;1.87;;
18776;SDS011;9517;51.174;4.160;2023-05-17T14:44:03;9.90;;;1.83;;
18776;SDS011;9517;51.174;4.160;2023-05-17T14:46:30;7.33;;;1.33;;
18776;SDS011;9517;51.174;4.160;2023-05-17T14:49:00;9.70;;;1.73;;
18776;SDS011;9517;51.174;4.160;2023-05-17T14:51:27;7.50;;;1.50;;
18776;SDS011;9517;51.174;4.160;2023-05-17T14:53:56;11.53;;;2.03;;
18776;SDS011;9517;51.174;4.160;2023-05-17T14:56:23;8.80;;;1.47;;